Terminal Aerodrome Forecast
Issued by NWS

Home | Current Version | Previous Version | Text Only | Print | Product List | Glossary On
Versions: 1 2 3 4 5 6 7 8 9 10 11 12 13 14 15 16
000
FTUS45 KGJT 281723
TAFTEX
TAF
KTEX 281723Z 2818/2918 VRB03KT P6SM FEW110 SCT200
     FM281900 27009KT P6SM VCTS FEW050 SCT080CB BKN200
     FM290200 13005KT P6SM FEW080 SCT200=

USA.gov is the U.S. government's official web portal to all federal, state and local government web resources and services.